createdAt,value
2018-06-10T00:01:02.974Z,99988.02
2018-06-10T00:03:33.549Z,99982.91
2018-06-10T00:06:04.073Z,99984.02
2018-06-10T00:08:34.642Z,99987.96
2018-06-10T00:11:05.190Z,99989.73
2018-06-10T00:13:35.747Z,99996.21
2018-06-10T00:16:06.313Z,100007.53
2018-06-10T00:18:36.915Z,100029.95
2018-06-10T00:21:07.633Z,100065.80
2018-06-10T00:23:38.246Z,100088.54
2018-06-10T00:26:08.899Z,100100.16
2018-06-10T00:28:44.727Z,100093.21
2018-06-10T00:31:15.262Z,100066.01
2018-06-10T00:33:45.782Z,100031.66
2018-06-10T00:36:16.346Z,100024.74
2018-06-10T00:38:46.909Z,100020.66
2018-06-10T00:41:17.461Z,100014.44
2018-06-10T00:44:17.248Z,100027.09
2018-06-10T00:46:53.322Z,100027.80
2018-06-10T00:49:24.549Z,100022.31
2018-06-10T00:51:55.893Z,100021.35
2018-06-10T00:54:26.787Z,100015.02
2018-06-10T00:57:01.697Z,100018.43
2018-06-10T00:59:40.228Z,100028.64
2018-06-10T01:02:14.653Z,100019.02
2018-06-10T01:04:46.318Z,100019.64
2018-06-10T01:07:16.939Z,100004.28
2018-06-10T01:09:47.952Z,99990.53
2018-06-10T01:12:18.619Z,99981.85
2018-06-10T01:14:49.218Z,99985.23
2018-06-10T01:17:19.902Z,99967.50
2018-06-10T01:19:50.456Z,99965.26
2018-06-10T01:22:21.127Z,99955.80
2018-06-10T01:24:51.677Z,99960.17
2018-06-10T01:27:22.249Z,99955.30
2018-06-10T01:29:52.792Z,99955.90
2018-06-10T01:32:23.378Z,99948.91
2018-06-10T01:34:53.937Z,99950.55
2018-06-10T01:37:24.545Z,99950.84
2018-06-10T01:39:55.114Z,99949.16
2018-06-10T01:42:25.693Z,99944.94
2018-06-10T01:44:56.233Z,99931.83
2018-06-10T01:47:26.842Z,99923.48
2018-06-10T01:49:57.444Z,99924.56
2018-06-10T01:52:27.960Z,99927.39
2018-06-10T01:54:58.609Z,99933.92
2018-06-10T01:57:29.409Z,99929.70
2018-06-10T01:59:59.963Z,99920.48
2018-06-10T02:02:30.493Z,99911.80
2018-06-10T02:05:01.099Z,99911.80
2018-06-10T02:07:31.844Z,99911.38
2018-06-10T02:10:02.419Z,99913.84
2018-06-10T02:12:33.029Z,99912.37
2018-06-10T02:15:03.577Z,99898.42
2018-06-10T02:17:34.123Z,99904.14
2018-06-10T02:20:04.708Z,99898.07
2018-06-10T02:22:35.288Z,99893.77
2018-06-10T02:25:05.931Z,99904.78
2018-06-10T02:27:36.568Z,99914.14
2018-06-10T02:30:07.383Z,99917.32
2018-06-10T02:32:37.930Z,99920.55
2018-06-10T02:35:08.538Z,99933.66
2018-06-10T02:37:39.049Z,99935.19
2018-06-10T02:40:09.603Z,99928.91
2018-06-10T02:43:10.891Z,99920.05
2018-06-10T02:45:41.529Z,99911.52
2018-06-10T02:48:12.104Z,99910.27
2018-06-10T02:50:42.716Z,99899.47
2018-06-10T02:53:13.250Z,99901.02
2018-06-10T02:55:43.844Z,99899.78
2018-06-10T02:58:14.381Z,99902.73
2018-06-10T03:00:44.958Z,99904.22
2018-06-10T03:03:15.468Z,99908.84
2018-06-10T03:05:46.146Z,99909.91
2018-06-10T03:08:16.753Z,99925.18
2018-06-10T03:10:47.456Z,99930.73
2018-06-10T03:13:18.220Z,99938.91
2018-06-10T03:15:48.862Z,99943.07
2018-06-10T03:18:19.396Z,99942.92
2018-06-10T03:20:50.018Z,99944.11
2018-06-10T03:23:20.618Z,99944.96
2018-06-10T03:25:51.208Z,99945.62
2018-06-10T03:28:21.776Z,99950.67
2018-06-10T03:30:52.453Z,99955.80
2018-06-10T03:33:22.994Z,99947.05
2018-06-10T03:35:53.638Z,99945.97
2018-06-10T03:38:24.242Z,99945.47
2018-06-10T03:40:54.860Z,99942.28
2018-06-10T03:43:25.414Z,99941.21
2018-06-10T03:45:56.073Z,99939.55
2018-06-10T03:48:26.683Z,99944.72
2018-06-10T03:50:57.267Z,99950.81
2018-06-10T03:53:27.816Z,99947.87
2018-06-10T03:55:58.361Z,99953.56
2018-06-10T03:58:28.962Z,99953.27
2018-06-10T04:00:59.675Z,99949.66
2018-06-10T04:03:30.272Z,99949.84
2018-06-10T04:06:00.839Z,99956.75
2018-06-10T04:08:31.414Z,99954.08
2018-06-10T04:11:01.992Z,99956.23
2018-06-10T04:13:32.555Z,99954.05
2018-06-10T04:16:03.121Z,99953.97
2018-06-10T04:18:33.692Z,99956.16
2018-06-10T04:21:04.225Z,99957.35
2018-06-10T04:23:34.824Z,99951.81
2018-06-10T04:26:05.460Z,99957.65
2018-06-10T04:28:36.026Z,99960.32
2018-06-10T04:31:06.619Z,99959.61
2018-06-10T04:33:37.165Z,99962.07
2018-06-10T04:36:07.759Z,99963.74
2018-06-10T04:38:38.320Z,99962.63
2018-06-10T04:41:08.924Z,99970.53
2018-06-10T04:43:39.552Z,99963.33
2018-06-10T04:46:10.148Z,99969.69
2018-06-10T04:48:40.732Z,99969.39
2018-06-10T04:51:11.292Z,99967.98
2018-06-10T04:53:41.869Z,99973.47
2018-06-10T04:56:12.474Z,99976.37
2018-06-10T04:58:43.046Z,99974.62
2018-06-10T05:01:13.626Z,99972.58
2018-06-10T05:03:44.200Z,99970.16
2018-06-10T05:06:14.759Z,99974.39
2018-06-10T05:08:45.287Z,99975.31
2018-06-10T05:11:15.868Z,99976.17
2018-06-10T05:13:46.443Z,99978.23
2018-06-10T05:16:17.066Z,99976.60
2018-06-10T05:18:47.604Z,99971.73
2018-06-10T05:21:18.196Z,99972.95
2018-06-10T05:23:48.729Z,99969.38
2018-06-10T05:26:19.365Z,99967.10
2018-06-10T05:28:49.897Z,99966.84
2018-06-10T05:31:20.501Z,99978.93
2018-06-10T05:33:51.118Z,99976.69
2018-06-10T05:36:21.699Z,99980.48
2018-06-10T05:38:52.811Z,99980.57
2018-06-10T05:41:23.406Z,99982.12
2018-06-10T05:43:54.029Z,99981.56
2018-06-10T05:46:24.598Z,99983.81
2018-06-10T05:48:56.137Z,99983.39
2018-06-10T05:51:26.694Z,99985.98
2018-06-10T05:53:57.321Z,99983.66
2018-06-10T05:56:27.972Z,99987.83
2018-06-10T05:58:58.634Z,99995.64
2018-06-10T06:01:29.155Z,99993.47
2018-06-10T06:03:59.731Z,100000.23
2018-06-10T06:06:30.292Z,100002.55
2018-06-10T06:09:00.916Z,99998.32
2018-06-10T06:11:31.523Z,99998.69
2018-06-10T06:14:02.182Z,99993.48
2018-06-10T06:16:32.850Z,99995.22
2018-06-10T06:19:03.588Z,99995.70
2018-06-10T06:21:34.295Z,99998.05
2018-06-10T06:24:04.888Z,99998.97
2018-06-10T06:26:35.462Z,100001.38
2018-06-10T06:29:06.117Z,99997.84
2018-06-10T06:31:36.661Z,99997.81
2018-06-10T06:34:07.341Z,99993.55
2018-06-10T06:36:38.038Z,99996.99
2018-06-10T06:39:09.084Z,99986.66
2018-06-10T06:41:39.750Z,99990.61
2018-06-10T06:44:10.301Z,99999.83
2018-06-10T06:46:41.253Z,99997.45
2018-06-10T06:49:11.801Z,99998.72
2018-06-10T06:51:42.413Z,100006.02
2018-06-10T06:54:13.003Z,100007.34
2018-06-10T06:56:43.679Z,100000.19
2018-06-10T06:59:14.304Z,100001.37
2018-06-10T07:01:44.950Z,100003.24
2018-06-10T07:04:15.583Z,100009.95
2018-06-10T07:06:46.340Z,100008.61
2018-06-10T07:09:17.005Z,100015.23
2018-06-10T07:11:47.704Z,100014.14
2018-06-10T07:14:18.370Z,100007.88
2018-06-10T07:16:48.982Z,100010.31
2018-06-10T07:19:19.629Z,100018.05
2018-06-10T07:21:50.236Z,100012.95
2018-06-10T07:24:20.887Z,100015.25
2018-06-10T07:26:51.468Z,100017.11
2018-06-10T07:29:22.946Z,100018.34
2018-06-10T07:31:53.531Z,100017.98
2018-06-10T07:34:24.184Z,100012.06
2018-06-10T07:36:54.714Z,100011.91
2018-06-10T07:39:25.397Z,100018.23
2018-06-10T07:41:56.067Z,100017.77
2018-06-10T07:44:26.643Z,100023.24
2018-06-10T07:46:57.436Z,100019.44
2018-06-10T07:49:28.094Z,100018.02
2018-06-10T07:51:58.720Z,100023.78
2018-06-10T07:54:29.362Z,100023.25
2018-06-10T07:56:59.973Z,100023.13
2018-06-10T07:59:30.613Z,100018.27
2018-06-10T08:02:01.367Z,100020.81
2018-06-10T08:04:31.989Z,100020.21
2018-06-10T08:07:02.664Z,100020.46
2018-06-10T08:09:33.272Z,100022.88
2018-06-10T08:12:03.886Z,100018.05
2018-06-10T08:14:34.427Z,100021.98
2018-06-10T08:17:05.069Z,100020.88
2018-06-10T08:19:35.736Z,100018.45
2018-06-10T08:22:06.332Z,100020.55
2018-06-10T08:24:36.849Z,100015.05
2018-06-10T08:27:07.490Z,100015.41
2018-06-10T08:29:38.115Z,100019.95
2018-06-10T08:32:08.771Z,100024.34
2018-06-10T08:34:39.527Z,100025.16
2018-06-10T08:37:10.237Z,100018.77
2018-06-10T08:39:40.844Z,100015.24
2018-06-10T08:42:11.422Z,100011.80
2018-06-10T08:44:41.942Z,100007.48
2018-06-10T08:47:12.778Z,100009.55
2018-06-10T08:49:43.706Z,100007.36
2018-06-10T08:52:14.476Z,100013.92
2018-06-10T08:54:45.095Z,100007.88
2018-06-10T08:57:15.645Z,100003.46
2018-06-10T08:59:46.255Z,100009.53
2018-06-10T09:02:16.789Z,100006.69
2018-06-10T09:04:47.367Z,100010.56
2018-06-10T09:07:17.916Z,100013.07
2018-06-10T09:09:48.449Z,100011.23
2018-06-10T09:12:19.012Z,99998.54
2018-06-10T09:14:49.598Z,99996.67
2018-06-10T09:17:20.389Z,99999.19
2018-06-10T09:19:51.006Z,99996.97
2018-06-10T09:22:21.681Z,100001.20
2018-06-10T09:24:52.219Z,100004.22
2018-06-10T09:27:22.860Z,100002.83
2018-06-10T09:29:53.440Z,100003.13
2018-06-10T09:32:24.092Z,100006.37
2018-06-10T09:34:54.678Z,100007.55
2018-06-10T09:37:25.284Z,100008.72
2018-06-10T09:39:55.886Z,100007.55
2018-06-10T09:42:26.480Z,100007.06
2018-06-10T09:44:57.069Z,100008.42
2018-06-10T09:47:27.695Z,100008.91
2018-06-10T09:49:58.310Z,100006.87
2018-06-10T09:52:28.859Z,100002.48
2018-06-10T09:54:59.424Z,99997.23
2018-06-10T09:57:29.992Z,100009.23
2018-06-10T10:00:00.556Z,100009.88
2018-06-10T10:02:31.171Z,100006.20
2018-06-10T10:05:01.722Z,100006.03
2018-06-10T10:07:32.328Z,100013.64
2018-06-10T10:10:03.020Z,100006.74
2018-06-10T10:12:33.615Z,100010.31
2018-06-10T10:15:04.263Z,100012.35
2018-06-10T10:17:34.812Z,100013.88
2018-06-10T10:20:05.448Z,100012.87
2018-06-10T10:22:36.002Z,100015.75
2018-06-10T10:25:06.671Z,100019.78
2018-06-10T10:27:37.365Z,100019.16
2018-06-10T10:30:08.048Z,100017.94
2018-06-10T10:32:39.269Z,100020.30
2018-06-10T10:35:09.864Z,100016.84
2018-06-10T10:37:40.542Z,100016.80
2018-06-10T10:40:11.234Z,100024.51
2018-06-10T10:42:41.568Z,100023.93
2018-06-10T10:45:12.136Z,100022.05
2018-06-10T10:47:42.689Z,100018.72
2018-06-10T10:50:13.297Z,100020.91
2018-06-10T10:52:43.877Z,100023.33
2018-06-10T10:55:14.536Z,100016.24
2018-06-10T10:57:45.096Z,100014.55
2018-06-10T11:00:15.674Z,100016.83
2018-06-10T11:02:46.305Z,100015.98
2018-06-10T11:05:16.946Z,100015.98
2018-06-10T11:07:47.553Z,100014.78
2018-06-10T11:10:18.267Z,100003.31
2018-06-10T11:12:48.802Z,100011.45
2018-06-10T11:15:19.408Z,100014.06
2018-06-10T11:17:49.997Z,100012.49
2018-06-10T11:20:20.611Z,100018.84
2018-06-10T11:22:51.173Z,100017.52
2018-06-10T11:25:21.881Z,100021.89
2018-06-10T11:27:52.442Z,100014.89
2018-06-10T11:30:22.680Z,100014.65
2018-06-10T11:32:53.097Z,100019.22
2018-06-10T11:35:23.719Z,100013.63
2018-06-10T11:38:00.926Z,100006.98
2018-06-10T11:40:31.677Z,100008.55
2018-06-10T11:43:02.503Z,100000.61
2018-06-10T11:45:33.201Z,100013.00
2018-06-10T11:48:03.796Z,100008.92
2018-06-10T11:50:34.340Z,100013.38
2018-06-10T11:53:04.917Z,100007.70
2018-06-10T11:55:35.476Z,100009.72
2018-06-10T11:58:06.148Z,100003.06
2018-06-10T12:00:36.720Z,100015.25
2018-06-10T12:03:07.403Z,100006.25
2018-06-10T12:05:37.956Z,100003.35
2018-06-10T12:08:08.542Z,99998.66
2018-06-10T12:10:39.221Z,99997.59
2018-06-10T12:13:09.701Z,100000.69
2018-06-10T12:15:40.342Z,100006.87
2018-06-10T12:18:10.925Z,100004.37
2018-06-10T12:20:41.579Z,100004.70
2018-06-10T12:23:12.256Z,99996.83
2018-06-10T12:25:42.811Z,100005.19
2018-06-10T12:28:13.418Z,100004.29
2018-06-10T12:30:44.055Z,100004.67
2018-06-10T12:33:14.716Z,99997.27
2018-06-10T12:35:45.433Z,99991.23
2018-06-10T12:38:16.145Z,99993.56
2018-06-10T12:40:46.671Z,99990.00
2018-06-10T12:43:17.313Z,99989.26
2018-06-10T12:45:47.911Z,99994.48
2018-06-10T12:48:18.482Z,99989.83
2018-06-10T12:50:51.948Z,99989.06
2018-06-10T12:53:22.531Z,99986.65
2018-06-10T12:55:53.045Z,99986.27
2018-06-10T12:58:23.687Z,99981.56
2018-06-10T13:00:54.311Z,99982.02
2018-06-10T13:03:24.880Z,99978.67
2018-06-10T13:05:55.444Z,99982.34
2018-06-10T13:08:25.997Z,99979.00
2018-06-10T13:10:56.636Z,99978.05
2018-06-10T13:13:27.300Z,99971.59
2018-06-10T13:15:57.851Z,99972.41
2018-06-10T13:18:28.471Z,99973.85
2018-06-10T13:20:59.056Z,99973.97
2018-06-10T13:23:29.651Z,99975.77
2018-06-10T13:26:00.206Z,99972.94
2018-06-10T13:28:30.736Z,99980.31
2018-06-10T13:31:01.295Z,99984.23
2018-06-10T13:33:31.869Z,99983.88
2018-06-10T13:36:02.461Z,99984.52
2018-06-10T13:38:33.036Z,99983.21
2018-06-10T13:41:03.618Z,99989.09
2018-06-10T13:43:34.203Z,99990.73
2018-06-10T13:46:04.885Z,99982.44
2018-06-10T13:48:35.397Z,99978.51
2018-06-10T13:51:05.976Z,99976.71
2018-06-10T13:53:36.534Z,99972.36
2018-06-10T13:56:07.229Z,99972.13
2018-06-10T13:58:37.746Z,99963.53
2018-06-10T14:01:08.308Z,99974.77
2018-06-10T14:03:38.854Z,99969.11
2018-06-10T14:06:09.455Z,99971.08
2018-06-10T14:08:39.948Z,99972.21
2018-06-10T14:11:10.550Z,99966.91
2018-06-10T14:13:41.084Z,99964.84
2018-06-10T14:16:11.658Z,99964.08
2018-06-10T14:18:42.190Z,99963.39
2018-06-10T14:21:12.786Z,99969.47
2018-06-10T14:23:43.324Z,99965.91
2018-06-10T14:26:13.897Z,99961.88
2018-06-10T14:28:44.442Z,99958.03
2018-06-10T14:31:14.977Z,99960.48
2018-06-10T14:33:45.598Z,99955.14
2018-06-10T14:36:16.204Z,99959.28
2018-06-10T14:38:46.760Z,99960.89
2018-06-10T14:41:17.295Z,99956.48
2018-06-10T14:43:47.880Z,99957.72
2018-06-10T14:46:18.457Z,99959.55
2018-06-10T14:48:48.978Z,99957.72
2018-06-10T14:51:19.553Z,99957.38
2018-06-10T14:53:50.108Z,99953.94
2018-06-10T14:56:20.673Z,99958.02
2018-06-10T14:58:51.282Z,99956.66
2018-06-10T15:01:21.596Z,99950.30
2018-06-10T15:03:52.118Z,99956.55
2018-06-10T15:06:22.665Z,99951.70
2018-06-10T15:08:53.237Z,99940.31
2018-06-10T15:11:24.239Z,99941.64
2018-06-10T15:13:55.050Z,99939.48
2018-06-10T15:16:26.011Z,99943.88
2018-06-10T15:18:56.680Z,99934.83
2018-06-10T15:21:27.695Z,99936.19
2018-06-10T15:23:58.497Z,99932.72
2018-06-10T15:26:29.282Z,99930.09
2018-06-10T15:28:59.960Z,99930.63
2018-06-10T15:31:30.813Z,99927.49
2018-06-10T15:34:01.381Z,99938.66
2018-06-10T15:36:32.281Z,99937.84
2018-06-10T15:39:03.323Z,99937.54
2018-06-10T15:41:33.850Z,99937.44
2018-06-10T15:44:04.417Z,99938.28
2018-06-10T15:46:35.002Z,99935.99
2018-06-10T15:49:05.565Z,99936.53
2018-06-10T15:51:36.121Z,99937.59
2018-06-10T15:54:06.790Z,99939.01
2018-06-10T15:56:37.280Z,99940.98
2018-06-10T15:59:07.817Z,99931.02
2018-06-10T16:01:38.350Z,99932.37
2018-06-10T16:04:08.912Z,99937.14
2018-06-10T16:07:13.332Z,99931.64
2018-06-10T16:09:43.877Z,99925.66
2018-06-10T16:12:14.418Z,99932.52
2018-06-10T16:17:21.808Z,99931.14
2018-06-10T16:19:52.365Z,99933.14
2018-06-10T16:22:22.880Z,99930.66
2018-06-10T16:24:53.443Z,99937.67
2018-06-10T16:27:23.941Z,99935.39
2018-06-10T16:29:54.512Z,99928.73
2018-06-10T16:32:25.052Z,99924.48
2018-06-10T16:34:55.578Z,99925.70
2018-06-10T16:37:26.128Z,99923.39
2018-06-10T16:39:56.657Z,99915.84
2018-06-10T16:42:27.213Z,99907.64
2018-06-10T16:44:57.764Z,99911.18
2018-06-10T16:47:28.286Z,99907.48
2018-06-10T16:49:58.853Z,99913.62
2018-06-10T16:52:29.436Z,99912.25
2018-06-10T16:54:59.960Z,99921.91
2018-06-10T16:57:30.465Z,99926.83
2018-06-10T17:00:01.044Z,99925.77
2018-06-10T17:02:31.597Z,99925.77
2018-06-10T17:05:02.184Z,99932.13
2018-06-10T17:07:32.725Z,99934.16
2018-06-10T17:10:03.319Z,99937.77
2018-06-10T17:12:33.890Z,99934.09
2018-06-10T17:15:04.530Z,99937.93
2018-06-10T17:17:35.077Z,99932.77
2018-06-10T17:20:05.746Z,99938.16
2018-06-10T17:22:36.304Z,99937.52
2018-06-10T17:25:06.863Z,99933.38
2018-06-10T17:27:37.509Z,99935.80
2018-06-10T17:30:08.108Z,99935.47
2018-06-10T17:32:38.703Z,99933.83
2018-06-10T17:35:09.259Z,99934.66
2018-06-10T17:37:39.814Z,99946.16
2018-06-10T17:40:10.424Z,99944.11
2018-06-10T17:42:40.984Z,99946.48
2018-06-10T17:45:11.558Z,99945.95
2018-06-10T17:47:42.169Z,99945.63
2018-06-10T17:50:12.718Z,99943.61
2018-06-10T17:52:43.263Z,99948.84
2018-06-10T17:55:14.037Z,99954.39
2018-06-10T17:57:44.680Z,99950.38
2018-06-10T18:00:15.421Z,99951.03
2018-06-10T18:02:45.960Z,99949.05
2018-06-10T18:05:16.529Z,99952.75
2018-06-10T18:07:47.089Z,99955.63
2018-06-10T18:10:17.649Z,99955.12
2018-06-10T18:12:48.232Z,99947.70
2018-06-10T18:15:18.862Z,99949.73
2018-06-10T18:17:49.398Z,99947.72
2018-06-10T18:20:19.989Z,99951.08
2018-06-10T18:25:35.340Z,99949.22
2018-06-10T18:28:06.001Z,99951.25
2018-06-10T18:30:36.607Z,99950.69
2018-06-10T18:33:07.222Z,99949.41
2018-06-10T18:35:37.822Z,99950.88
2018-06-10T18:38:08.409Z,99952.72
2018-06-10T18:40:39.058Z,99959.59
2018-06-10T18:43:09.700Z,99954.06
2018-06-10T18:45:40.316Z,99952.37
2018-06-10T18:48:10.946Z,99947.66
2018-06-10T18:50:41.606Z,99945.95
2018-06-10T18:53:12.295Z,99948.96
2018-06-10T18:55:42.848Z,99956.69
2018-06-10T18:58:13.526Z,99959.05
2018-06-10T19:00:44.186Z,99958.69
2018-06-10T19:03:14.791Z,99961.19
2018-06-10T19:05:45.461Z,99969.92
2018-06-10T19:08:16.041Z,99970.60
2018-06-10T19:10:46.763Z,99977.11
2018-06-10T19:13:17.343Z,99974.55
2018-06-10T19:15:48.028Z,99979.89
2018-06-10T19:18:18.608Z,99982.38
2018-06-10T19:20:49.245Z,99979.30
2018-06-10T19:23:19.834Z,99984.97
2018-06-10T19:25:50.429Z,99996.41
2018-06-10T19:28:21.037Z,100003.92
2018-06-10T19:30:51.651Z,100007.44
2018-06-10T19:33:22.268Z,100008.41
2018-06-10T19:35:52.832Z,100016.73
2018-06-10T19:38:23.426Z,100017.16
2018-06-10T19:40:54.041Z,100012.53
2018-06-10T19:43:24.325Z,100021.88
2018-06-10T19:45:54.774Z,100025.39
2018-06-10T19:48:25.363Z,100019.83
2018-06-10T19:50:55.604Z,100025.70
2018-06-10T19:53:26.092Z,100023.27
2018-06-10T19:55:56.702Z,100016.00
2018-06-10T19:58:27.554Z,100022.39
2018-06-10T20:00:58.388Z,100021.50
2018-06-10T20:03:29.023Z,100022.03
2018-06-10T20:05:59.539Z,100035.03
2018-06-10T20:08:30.152Z,100039.33
2018-06-10T20:11:00.726Z,100046.13
2018-06-10T20:13:31.328Z,100043.84
2018-06-10T20:16:01.901Z,100053.39
2018-06-10T20:18:32.533Z,100059.50
2018-06-10T20:21:03.082Z,100063.52
2018-06-10T20:23:33.715Z,100058.97
2018-06-10T20:26:04.392Z,100065.88
2018-06-10T20:28:34.961Z,100066.45
2018-06-10T20:31:05.585Z,100068.85
2018-06-10T20:33:36.279Z,100067.67
2018-06-10T20:36:06.880Z,100071.94
2018-06-10T20:38:37.472Z,100067.86
2018-06-10T20:41:08.146Z,100058.95
2018-06-10T20:43:38.715Z,100059.02
2018-06-10T20:46:09.281Z,100056.05
2018-06-10T20:48:39.965Z,100067.30
2018-06-10T20:51:10.541Z,100068.52
2018-06-10T20:53:42.128Z,100075.81
2018-06-10T20:56:12.708Z,100070.86
2018-06-10T20:58:43.372Z,100076.62
2018-06-10T21:01:13.928Z,100082.23
2018-06-10T21:03:44.777Z,100087.12
2018-06-10T21:06:15.337Z,100097.09
2018-06-10T21:08:45.972Z,100102.19
2018-06-10T21:11:16.486Z,100099.56
2018-06-10T21:13:47.108Z,100096.98
2018-06-10T21:16:17.630Z,100096.55
2018-06-10T21:18:48.269Z,100093.59
2018-06-10T21:21:18.855Z,100103.95
2018-06-10T21:23:49.525Z,100109.89
2018-06-10T21:26:20.074Z,100107.36
2018-06-10T21:28:50.649Z,100109.67
2018-06-10T21:31:21.250Z,100111.58
2018-06-10T21:33:51.840Z,100108.41
2018-06-10T21:36:22.424Z,100103.05
2018-06-10T21:38:52.959Z,100098.25
2018-06-10T21:41:23.519Z,100092.42
2018-06-10T21:43:54.069Z,100098.27
2018-06-10T21:46:24.620Z,100103.34
2018-06-10T21:48:55.165Z,100099.33
2018-06-10T21:51:25.752Z,100095.23
2018-06-10T21:53:56.354Z,100089.44
2018-06-10T21:56:26.942Z,100094.24
2018-06-10T21:58:57.496Z,100093.95
2018-06-10T22:01:28.082Z,100102.13
2018-06-10T22:03:58.640Z,100104.11
2018-06-10T22:06:29.301Z,100107.30
2018-06-10T22:08:59.852Z,100106.67
2018-06-10T22:11:30.513Z,100118.64
2018-06-10T22:14:01.032Z,100121.51
2018-06-10T22:16:31.720Z,100111.34
2018-06-10T22:19:02.281Z,100112.17
2018-06-10T22:21:32.824Z,100119.89
2018-06-10T22:24:03.399Z,100126.36
2018-06-10T22:26:34.031Z,100124.09
2018-06-10T22:29:05.199Z,100128.39
2018-06-10T22:31:35.743Z,100129.17
2018-06-10T22:34:06.317Z,100140.31
2018-06-10T22:36:36.907Z,100138.23
2018-06-10T22:39:09.051Z,100142.98
2018-06-10T22:41:39.727Z,100154.11
2018-06-10T22:44:10.275Z,100152.70
2018-06-10T22:46:40.890Z,100161.16
2018-06-10T22:49:11.453Z,100163.39
2018-06-10T22:51:42.022Z,100159.77
2018-06-10T22:54:29.575Z,100159.15
2018-06-10T22:57:00.188Z,100154.38
2018-06-10T22:59:30.709Z,100145.52
2018-06-10T23:02:01.258Z,100147.13
2018-06-10T23:04:31.801Z,100139.83
2018-06-10T23:07:02.396Z,100142.02
2018-06-10T23:09:32.974Z,100143.02
2018-06-10T23:12:03.514Z,100144.32
2018-06-10T23:14:34.095Z,100141.08
2018-06-10T23:17:04.728Z,100147.61
2018-06-10T23:19:35.312Z,100149.24
2018-06-10T23:22:05.862Z,100152.02
2018-06-10T23:24:36.438Z,100147.05
2018-06-10T23:27:06.946Z,100153.50
2018-06-10T23:29:37.551Z,100152.87
2018-06-10T23:32:08.112Z,100155.07
2018-06-10T23:34:38.676Z,100148.16
2018-06-10T23:37:09.250Z,100149.59
2018-06-10T23:39:39.789Z,100151.30
2018-06-10T23:42:10.351Z,100150.81
2018-06-10T23:44:40.907Z,100147.24
2018-06-10T23:47:11.425Z,100148.87
2018-06-10T23:49:41.999Z,100148.72
2018-06-10T23:52:12.544Z,100154.45
2018-06-10T23:54:43.087Z,100147.67
2018-06-10T23:57:13.618Z,100150.97
2018-06-10T23:59:44.204Z,100150.11
